Time;durP1;ratioP1;P1;durP2;ratioP2;P2;SDS_P1;SDS_P2;PMS_P1;PMS_P2;Temp;Humidity;BMP_temperature;BMP_pressure;BME280_temperature;BME280_humidity;BME280_pressure;Samples;Min_cycle;Max_cycle;Signal;HPM_P1;HPM_P2
2021/10/14 00:00:54;;;;;;;5.28;1.05;;;;;;;13.66;100.00;100874.88;6336272;22;20067;-62
2021/10/14 00:03:57;;;;;;;5.80;1.60;;;;;;;13.67;100.00;100870.81;6336007;22;20025;-62
2021/10/14 00:07:00;;;;;;;5.32;1.67;;;;;;;13.62;100.00;100869.44;6336213;22;20106;-62
2021/10/14 00:10:05;;;;;;;2.10;0.90;;;;;;;13.58;100.00;100865.25;6335929;22;20088;-62
2021/10/14 00:13:08;;;;;;;3.60;0.90;;;;;;;13.58;100.00;100866.03;6336389;22;20022;-62
2021/10/14 00:16:12;;;;;;;1.40;0.73;;;;;;;13.58;100.00;100870.84;6336925;22;20568;-62
2021/10/14 00:19:15;;;;;;;2.10;0.30;;;;;;;13.52;100.00;100864.34;6336783;22;20099;-62
2021/10/14 00:22:18;;;;;;;1.20;1.00;;;;;;;13.48;100.00;100872.13;6336554;22;20026;-62
2021/10/14 00:25:22;;;;;;;2.30;0.98;;;;;;;13.42;100.00;100860.81;6336428;22;20389;-62
2021/10/14 00:28:25;;;;;;;7.75;1.23;;;;;;;13.41;100.00;100864.84;6336065;22;20040;-62
2021/10/14 00:31:28;;;;;;;1.58;0.65;;;;;;;13.44;100.00;100869.53;6336197;22;20029;-62
2021/10/14 00:34:30;;;;;;;1.13;0.50;;;;;;;13.40;100.00;100862.53;6336442;22;20384;-62
2021/10/14 00:37:33;;;;;;;1.25;0.63;;;;;;;13.35;100.00;100861.16;6336237;22;20022;-62
2021/10/14 00:40:37;;;;;;;6.75;0.90;;;;;;;13.30;100.00;100858.97;6336322;22;20025;-62
2021/10/14 00:43:40;;;;;;;4.43;1.55;;;;;;;13.26;100.00;100855.56;6336133;22;20136;-62
2021/10/14 00:46:55;;;;;;;2.97;0.88;;;;;;;13.22;100.00;100845.78;6336233;22;20030;-62
2021/10/14 00:49:59;;;;;;;3.00;0.85;;;;;;;13.18;100.00;100842.38;6336213;22;20098;-62
2021/10/14 00:53:02;;;;;;;4.82;1.10;;;;;;;13.17;100.00;100847.19;6335936;22;20103;-62
2021/10/14 00:56:08;;;;;;;3.67;0.52;;;;;;;13.22;100.00;100842.97;6335947;22;20465;-62
2021/10/14 00:59:12;;;;;;;2.05;1.00;;;;;;;13.19;100.00;100841.91;6336343;22;20038;-62
2021/10/14 01:02:15;;;;;;;3.15;1.30;;;;;;;13.18;100.00;100840.38;6336119;22;20023;-62
2021/10/14 01:05:18;;;;;;;4.65;0.85;;;;;;;13.16;100.00;100837.25;6336170;22;20025;-62
2021/10/14 01:08:21;;;;;;;2.63;0.43;;;;;;;13.14;100.00;100836.97;6336047;22;20025;-62
2021/10/14 01:11:25;;;;;;;0.95;0.30;;;;;;;13.17;100.00;100832.41;6316550;22;20030;-62
2021/10/14 01:14:28;;;;;;;3.05;1.17;;;;;;;13.15;100.00;100832.13;6335386;22;20342;-62
2021/10/14 01:17:31;;;;;;;0.75;0.70;;;;;;;13.13;100.00;100832.59;6336015;22;20022;-63
2021/10/14 01:20:34;;;;;;;3.47;0.85;;;;;;;13.12;100.00;100831.06;6335844;22;20499;-61
2021/10/14 01:23:38;;;;;;;3.15;1.17;;;;;;;13.16;100.00;100836.47;6335788;22;20026;-62
2021/10/14 01:26:42;;;;;;;8.95;1.15;;;;;;;13.17;100.00;100833.19;6335703;22;20028;-61
2021/10/14 01:29:45;;;;;;;3.03;1.15;;;;;;;13.17;100.00;100827.59;6335637;22;20057;-62
2021/10/14 01:32:49;;;;;;;3.03;0.45;;;;;;;13.16;100.00;100828.88;6336050;22;20386;-62
2021/10/14 01:35:52;;;;;;;2.65;0.80;;;;;;;13.22;100.00;100829.78;6336065;22;20075;-62
2021/10/14 01:38:56;;;;;;;0.73;0.68;;;;;;;13.24;100.00;100830.09;6335976;22;20050;-62
2021/10/14 01:41:59;;;;;;;2.90;0.45;;;;;;;13.18;100.00;100829.19;6336022;22;20037;-62
2021/10/14 01:45:04;;;;;;;3.03;1.27;;;;;;;13.20;100.00;100826.69;6335897;22;20457;-62
2021/10/14 01:48:07;;;;;;;1.27;0.82;;;;;;;13.19;100.00;100830.72;6335751;22;20026;-62
2021/10/14 01:51:11;;;;;;;1.08;0.77;;;;;;;13.17;100.00;100826.81;6335911;22;20025;-61
2021/10/14 01:54:14;;;;;;;1.20;0.52;;;;;;;13.16;100.00;100817.69;6335984;22;20021;-62
2021/10/14 01:57:16;;;;;;;1.40;0.65;;;;;;;13.13;100.00;100827.00;6335679;22;20044;-62
2021/10/14 02:00:20;;;;;;;0.30;0.30;;;;;;;13.15;100.00;100824.50;6335699;22;20022;-61
2021/10/14 02:03:22;;;;;;;2.17;0.77;;;;;;;13.11;100.00;100811.94;6335334;22;20034;-62
2021/10/14 02:06:25;;;;;;;1.30;0.80;;;;;;;13.16;100.00;100814.88;6335623;22;20473;-62
2021/10/14 02:09:28;;;;;;;1.50;0.50;;;;;;;13.19;100.00;100816.72;6335763;22;20021;-62
2021/10/14 02:12:31;;;;;;;4.93;0.80;;;;;;;13.19;100.00;100816.72;6335541;22;20084;-62
2021/10/14 02:15:34;;;;;;;4.07;0.75;;;;;;;13.18;100.00;100817.19;6335394;22;20072;-61
2021/10/14 02:18:37;;;;;;;1.35;0.85;;;;;;;13.12;100.00;100814.28;6335834;22;20075;-62
2021/10/14 02:21:40;;;;;;;2.38;0.43;;;;;;;13.18;100.00;100806.00;6335492;22;20451;-62
2021/10/14 02:24:43;;;;;;;0.30;0.20;;;;;;;13.11;100.00;100803.53;6335478;22;20079;-61
2021/10/14 02:27:46;;;;;;;1.23;0.55;;;;;;;13.13;100.00;100803.84;6318473;22;20044;-62
2021/10/14 02:30:49;;;;;;;1.13;0.73;;;;;;;13.14;100.00;100800.59;6337548;22;20097;-62
2021/10/14 02:33:52;;;;;;;1.90;0.50;;;;;;;13.16;100.00;100794.53;6338016;22;20021;-62
2021/10/14 02:36:55;;;;;;;1.58;0.63;;;;;;;13.18;100.00;100797.63;6339183;22;20025;-62
2021/10/14 02:39:57;;;;;;;2.53;0.75;;;;;;;13.16;100.00;100789.72;6339679;22;20029;-62
2021/10/14 02:43:01;;;;;;;0.95;0.30;;;;;;;13.16;100.00;100784.13;6340242;22;20095;-62
2021/10/14 02:46:04;;;;;;;1.52;0.68;;;;;;;13.15;100.00;100787.38;6339986;22;20156;-62
2021/10/14 02:49:07;;;;;;;3.03;0.68;;;;;;;13.19;100.00;100779.59;6339695;22;20026;-62
2021/10/14 02:52:10;;;;;;;15.48;0.47;;;;;;;13.19;100.00;100774.00;6339998;22;20346;-62
2021/10/14 02:55:13;;;;;;;2.28;0.52;;;;;;;13.21;100.00;100775.06;6340118;22;20067;-62
2021/10/14 02:58:15;;;;;;;1.38;0.52;;;;;;;13.21;100.00;100775.06;6340034;22;20026;-62
2021/10/14 03:01:18;;;;;;;4.60;1.73;;;;;;;13.24;100.00;100774.13;6338543;22;20042;-61
2021/10/14 03:04:22;;;;;;;6.30;1.52;;;;;;;13.22;100.00;100773.84;6339703;22;20052;-62
2021/10/14 03:07:25;;;;;;;2.92;1.13;;;;;;;13.24;100.00;100776.94;6339497;22;20028;-62
2021/10/14 03:10:28;;;;;;;2.65;0.73;;;;;;;13.25;100.00;100775.69;6339591;22;20044;-62
2021/10/14 03:13:31;;;;;;;0.20;0.10;;;;;;;13.22;100.00;100771.03;6339380;22;20462;-62
2021/10/14 03:16:34;;;;;;;0.60;0.35;;;;;;;13.13;100.00;100776.66;6339535;22;20026;-62
2021/10/14 03:19:37;;;;;;;1.00;0.73;;;;;;;13.08;100.00;100782.13;6339673;22;20025;-62
2021/10/14 03:22:40;;;;;;;4.88;0.95;;;;;;;13.04;100.00;100770.31;6339485;22;20025;-62
2021/10/14 03:25:43;;;;;;;0.35;0.15;;;;;;;13.04;100.00;100768.25;6320563;22;20068;-62
2021/10/14 03:28:45;;;;;;;2.40;0.60;;;;;;;13.03;100.00;100763.94;6339557;22;20044;-61
2021/10/14 03:31:48;;;;;;;3.13;0.90;;;;;;;13.03;100.00;100763.16;6339523;22;20025;-62
2021/10/14 03:34:51;;;;;;;6.43;0.68;;;;;;;13.03;100.00;100760.34;6339475;22;20386;-62
2021/10/14 03:37:54;;;;;;;4.78;0.88;;;;;;;13.11;100.00;100756.00;6339451;22;20347;-62
2021/10/14 03:40:57;;;;;;;2.50;0.93;;;;;;;13.11;100.00;100756.78;6339616;22;20052;-62
2021/10/14 03:43:59;;;;;;;1.20;0.55;;;;;;;13.21;100.00;100755.50;6339621;22;20026;-62
2021/10/14 03:47:02;;;;;;;2.38;0.65;;;;;;;13.14;100.00;100750.25;6339506;22;20025;-62
2021/10/14 03:50:06;;;;;;;0.93;0.17;;;;;;;13.02;100.00;100756.78;6339792;22;20076;-62
2021/10/14 03:53:09;;;;;;;0.73;0.40;;;;;;;12.97;100.00;100749.03;6339467;22;20462;-62
2021/10/14 03:56:12;;;;;;;1.15;0.68;;;;;;;12.97;100.00;100749.03;6339541;22;20048;-62
2021/10/14 03:59:15;;;;;;;0.20;0.10;;;;;;;12.89;100.00;100745.00;6339523;22;20388;-61
2021/10/14 04:02:18;;;;;;;0.45;0.28;;;;;;;12.84;100.00;100749.19;6339088;22;20060;-62
2021/10/14 04:05:20;;;;;;;2.63;0.52;;;;;;;12.86;100.00;100745.97;6339275;22;20139;-62
2021/10/14 04:08:23;;;;;;;0.30;0.20;;;;;;;12.86;100.00;100734.78;6339347;22;20025;-62
2021/10/14 04:11:26;;;;;;;3.67;0.40;;;;;;;12.88;100.00;100737.88;6339230;22;20073;-62
2021/10/14 04:14:29;;;;;;;0.90;0.65;;;;;;;12.90;100.00;100736.16;6338998;22;20026;-62
2021/10/14 04:17:32;;;;;;;0.68;0.50;;;;;;;12.90;100.00;100740.97;6338967;22;20068;-62
2021/10/14 04:20:34;;;;;;;2.33;0.60;;;;;;;12.92;100.00;100730.88;6338914;22;20025;-61
2021/10/14 04:23:42;;;;;;;3.72;0.43;;;;;;;12.93;100.00;100734.41;6338758;22;20050;-62
2021/10/14 04:26:45;;;;;;;0.40;0.35;;;;;;;12.89;100.00;100739.41;6339190;22;20356;-62
2021/10/14 04:29:48;;;;;;;2.28;0.73;;;;;;;12.93;100.00;100731.63;6339019;22;20026;-62
2021/10/14 04:32:51;;;;;;;1.02;0.52;;;;;;;13.01;100.00;100734.88;6339097;22;20029;-61
2021/10/14 04:35:54;;;;;;;8.10;0.73;;;;;;;12.97;100.00;100732.25;6339114;22;20097;-61
2021/10/14 04:38:58;;;;;;;1.85;0.55;;;;;;;12.96;100.00;100733.50;6339180;22;20465;-62
2021/10/14 04:42:03;;;;;;;3.22;0.57;;;;;;;12.98;100.00;100736.59;6339252;22;20115;-61
2021/10/14 04:45:06;;;;;;;2.15;0.30;;;;;;;12.97;100.00;100732.25;6338870;22;20545;-61
2021/10/14 04:48:09;;;;;;;0.28;0.28;;;;;;;13.08;100.00;100732.53;6338634;22;20076;-61
2021/10/14 04:51:12;;;;;;;1.65;0.88;;;;;;;13.12;100.00;100735.97;6339035;22;20025;-61
2021/10/14 04:54:15;;;;;;;2.78;0.82;;;;;;;13.11;100.00;100734.41;6338908;22;20387;-61
2021/10/14 04:57:18;;;;;;;1.20;0.32;;;;;;;13.10;100.00;100732.88;6338967;22;20021;-61
2021/10/14 05:00:21;;;;;;;1.25;0.40;;;;;;;13.04;100.00;100726.31;6338849;22;20355;-61
2021/10/14 05:03:24;;;;;;;0.90;0.68;;;;;;;13.01;100.00;100727.28;6338533;22;20072;-61
2021/10/14 05:06:27;;;;;;;0.75;0.45;;;;;;;13.04;100.00;100731.91;6338647;22;20057;-61
2021/10/14 05:09:30;;;;;;;0.90;0.43;;;;;;;13.01;100.00;100730.06;6338671;22;20044;-61
2021/10/14 05:12:35;;;;;;;0.50;0.40;;;;;;;13.00;100.00;100728.50;6338637;22;20358;-61
2021/10/14 05:15:39;;;;;;;1.02;0.32;;;;;;;13.02;100.00;100734.41;6338413;22;20021;-61
2021/10/14 05:18:42;;;;;;;1.83;0.40;;;;;;;13.01;100.00;100724.47;6338713;22;20022;-61
2021/10/14 05:21:45;;;;;;;0.15;0.13;;;;;;;12.97;100.00;100723.88;6338679;22;20350;-61
2021/10/14 05:24:47;;;;;;;1.40;0.60;;;;;;;12.95;100.00;100729.13;6338494;22;20142;-61
2021/10/14 05:27:51;;;;;;;3.60;0.95;;;;;;;12.92;100.00;100721.72;6338402;22;20049;-61
2021/10/14 05:30:54;;;;;;;0.85;0.45;;;;;;;12.90;100.00;100718.59;6338566;22;20458;-61
2021/10/14 05:33:57;;;;;;;1.58;0.63;;;;;;;12.88;100.00;100716.28;6338437;22;20529;-61
2021/10/14 05:36:59;;;;;;;0.28;0.28;;;;;;;12.88;100.00;100718.31;6338822;22;20026;-61
2021/10/14 05:40:04;;;;;;;2.35;1.05;;;;;;;12.88;100.00;100715.50;6338632;22;20500;-61
2021/10/14 05:43:06;;;;;;;4.00;0.30;;;;;;;12.90;100.00;100704.63;6338600;22;20029;-61
2021/10/14 05:46:09;;;;;;;0.55;0.20;;;;;;;12.89;100.00;100701.06;6338536;22;20064;-61
2021/10/14 05:49:12;;;;;;;1.20;0.43;;;;;;;12.78;100.00;100694.41;6338634;22;20040;-61
2021/10/14 05:52:15;;;;;;;2.15;0.95;;;;;;;12.79;100.00;100690.38;6338626;22;20505;-61
2021/10/14 05:55:17;;;;;;;3.88;0.55;;;;;;;12.81;100.00;100694.25;6338579;22;20068;-61
2021/10/14 05:58:20;;;;;;;2.63;0.43;;;;;;;12.81;100.00;100685.09;6338471;22;20339;-61
2021/10/14 06:01:23;;;;;;;1.17;0.43;;;;;;;12.86;100.00;100690.03;6338308;22;20026;-61
2021/10/14 06:04:26;;;;;;;0.43;0.10;;;;;;;12.93;100.00;100679.28;6337867;22;20022;-61
2021/10/14 06:07:29;;;;;;;6.07;0.93;;;;;;;12.98;100.00;100677.09;6338249;22;20022;-61
2021/10/14 06:10:32;;;;;;;0.68;0.43;;;;;;;12.95;100.00;100671.19;6337477;22;20025;-61
2021/10/14 06:13:35;;;;;;;1.85;0.52;;;;;;;12.92;100.00;100674.19;6337961;22;20084;-61
2021/10/14 06:16:38;;;;;;;2.80;0.40;;;;;;;12.90;100.00;100676.66;6337858;22;20348;-61
2021/10/14 06:19:41;;;;;;;2.15;0.80;;;;;;;12.92;100.00;100676.97;6337922;22;20025;-61
2021/10/14 06:22:44;;;;;;;0.50;0.32;;;;;;;12.87;100.00;100672.78;6337941;22;20064;-61
2021/10/14 06:25:47;;;;;;;1.13;0.70;;;;;;;12.88;100.00;100673.56;6337971;22;20026;-61
2021/10/14 06:28:50;;;;;;;1.02;0.73;;;;;;;12.91;100.00;100670.59;6338064;22;20042;-61
2021/10/14 06:31:52;;;;;;;1.65;0.77;;;;;;;12.89;100.00;100667.50;6337830;22;20510;-60
2021/10/14 06:34:55;;;;;;;1.08;0.98;;;;;;;12.87;100.00;100663.63;6338016;22;20022;-61
2021/10/14 06:37:58;;;;;;;1.05;0.32;;;;;;;12.87;100.00;100658.03;6338465;22;20025;-61
2021/10/14 06:41:01;;;;;;;1.60;0.55;;;;;;;12.89;100.00;100656.31;6338302;22;20144;-61
2021/10/14 06:44:07;;;;;;;1.30;0.20;;;;;;;12.87;100.00;100655.25;6338161;22;20044;-61
2021/10/14 06:47:10;;;;;;;0.65;0.20;;;;;;;12.89;100.00;100649.94;6338270;22;20461;-61
2021/10/14 06:50:13;;;;;;;0.77;0.47;;;;;;;12.90;100.00;100652.28;6338270;22;20450;-61
2021/10/14 06:53:16;;;;;;;0.43;0.43;;;;;;;12.90;100.00;100645.91;6338278;22;20022;-61
2021/10/14 06:56:19;;;;;;;2.20;0.77;;;;;;;12.89;100.00;100652.75;6338702;22;20064;-60
2021/10/14 06:59:21;;;;;;;0.40;0.28;;;;;;;12.97;100.00;100650.41;6338836;22;20053;-60
2021/10/14 07:02:24;;;;;;;0.73;0.45;;;;;;;13.00;100.00;100650.22;6338330;22;20430;-60
2021/10/14 07:05:27;;;;;;;2.83;0.65;;;;;;;13.00;100.00;100650.22;6338894;22;20053;-60
2021/10/14 07:08:31;;;;;;;1.88;0.45;;;;;;;13.01;100.00;100651.78;6338870;22;20079;-60
2021/10/14 07:11:40;;;;;;;2.92;0.68;;;;;;;13.02;100.00;100644.91;6339334;22;20068;-60
2021/10/14 07:14:43;;;;;;;2.70;1.00;;;;;;;13.05;100.00;100646.81;6340596;22;20120;-60
2021/10/14 07:17:47;;;;;;;3.63;0.63;;;;;;;13.14;100.00;100638.38;6339844;22;20026;-58
2021/10/14 07:20:50;;;;;;;2.63;1.02;;;;;;;13.20;100.00;100642.06;6340001;22;20184;-58
2021/10/14 07:23:52;;;;;;;1.30;0.52;;;;;;;13.17;100.00;100643.00;6339555;22;20056;-58
2021/10/14 07:26:57;;;;;;;19.40;1.25;;;;;;;13.20;100.00;100625.28;6339692;22;20025;-58
2021/10/14 07:30:00;;;;;;;2.00;0.80;;;;;;;13.21;100.00;100631.66;6320728;22;20473;-58
2021/10/14 07:33:04;;;;;;;2.28;1.23;;;;;;;13.28;100.00;100626.47;6339677;22;20516;-58
2021/10/14 07:36:07;;;;;;;1.25;0.65;;;;;;;13.36;100.00;100632.50;6339481;22;20099;-58
2021/10/14 07:39:10;;;;;;;3.20;0.80;;;;;;;13.46;100.00;100634.78;6339664;22;20508;-58
2021/10/14 07:42:13;;;;;;;0.93;0.30;;;;;;;13.55;100.00;100617.91;6339544;22;20025;-58
2021/10/14 07:45:16;;;;;;;0.73;0.40;;;;;;;13.55;100.00;100620.72;6339529;22;20075;-58
2021/10/14 07:48:19;;;;;;;0.25;0.25;;;;;;;13.57;100.00;100612.63;6339431;22;20021;-58
2021/10/14 07:51:22;;;;;;;1.83;0.50;;;;;;;13.60;100.00;100614.44;6339365;22;20068;-58
2021/10/14 07:54:24;;;;;;;5.22;0.75;;;;;;;13.61;100.00;100610.41;6339115;22;20018;-58
2021/10/14 07:57:27;;;;;;;1.50;0.47;;;;;;;13.74;100.00;100610.16;6339005;22;20454;-58
2021/10/14 08:00:30;;;;;;;9.13;1.30;;;;;;;13.81;100.00;100609.00;6338938;22;20052;-58
2021/10/14 08:03:33;;;;;;;2.22;0.22;;;;;;;13.90;100.00;100614.53;6338880;22;20044;-58
2021/10/14 08:06:36;;;;;;;1.10;0.40;;;;;;;13.91;100.00;100607.66;6339067;22;20038;-58
2021/10/14 08:09:39;;;;;;;0.68;0.32;;;;;;;13.99;100.00;100606.06;6339147;22;20048;-58
2021/10/14 08:12:43;;;;;;;3.42;0.60;;;;;;;14.01;100.00;100597.94;6320038;22;20072;-59
2021/10/14 08:15:52;;;;;;;2.35;0.65;;;;;;;14.09;100.00;100593.50;6338708;22;20677;-58
2021/10/14 08:18:56;;;;;;;1.77;0.63;;;;;;;14.15;100.00;100594.38;6319512;22;20022;-58
2021/10/14 08:21:59;;;;;;;1.65;0.95;;;;;;;14.25;100.00;100591.00;6338652;22;20455;-58
2021/10/14 08:25:14;;;;;;;3.60;0.40;;;;;;;14.32;100.00;100584.25;6338494;22;20458;-59
2021/10/14 08:28:18;;;;;;;2.38;0.60;;;;;;;14.38;100.00;100585.13;6338651;22;20021;-58
2021/10/14 08:31:23;;;;;;;2.88;0.60;;;;;;;14.43;100.00;100579.63;6338573;22;20355;-58
2021/10/14 08:34:26;;;;;;;2.53;0.20;;;;;;;14.52;100.00;100575.94;6338367;22;20462;-58
2021/10/14 08:37:29;;;;;;;2.75;0.43;;;;;;;14.49;100.00;100576.16;6338492;22;20507;-59
2021/10/14 08:40:34;;;;;;;0.20;0.10;;;;;;;14.51;100.00;100568.78;6338466;22;20087;-59
2021/10/14 08:43:39;;;;;;;2.95;0.43;;;;;;;14.54;100.00;100579.03;6338192;22;20362;-58
2021/10/14 08:46:42;;;;;;;3.08;0.60;;;;;;;14.59;100.00;100577.56;6338266;22;20465;-59
2021/10/14 08:49:48;;;;;;;1.38;0.50;;;;;;;14.60;100.00;100571.47;6338432;22;20338;-58
2021/10/14 08:52:51;;;;;;;1.33;0.40;;;;;;;14.66;100.00;100574.38;6338372;22;20026;-58
2021/10/14 08:55:54;;;;;;;0.70;0.35;;;;;;;14.74;100.00;100559.47;6338277;22;20017;-58
2021/10/14 08:58:57;;;;;;;2.15;0.95;;;;;;;14.87;100.00;100562.72;6338276;22;20026;-58
2021/10/14 09:02:13;;;;;;;1.50;0.45;;;;;;;15.07;100.00;100564.78;6338364;22;20092;-58
2021/10/14 09:05:17;;;;;;;1.17;0.45;;;;;;;15.29;100.00;100556.66;6338169;22;20809;-58
2021/10/14 09:08:33;;;;;;;2.55;0.63;;;;;;;15.38;100.00;100561.34;6338251;22;20382;-58
2021/10/14 09:11:36;;;;;;;2.67;0.73;;;;;;;15.41;100.00;100558.34;6338002;22;20052;-58
2021/10/14 09:15:02;;;;;;;4.00;0.73;;;;;;;15.48;100.00;100557.94;6337863;22;20466;-58
2021/10/14 09:18:05;;;;;;;1.17;0.20;;;;;;;15.50;100.00;100563.06;6338282;22;20025;-58
2021/10/14 09:21:19;;;;;;;2.75;1.30;;;;;;;15.43;100.00;100557.84;6338226;22;20068;-58
2021/10/14 09:24:22;;;;;;;1.88;0.88;;;;;;;15.37;100.00;100560.59;6337944;22;20343;-57
2021/10/14 09:27:25;;;;;;;3.58;0.75;;;;;;;15.29;100.00;100547.47;6338061;22;20075;-57
2021/10/14 09:30:28;;;;;;;2.95;0.50;;;;;;;15.22;100.00;100559.09;6337954;22;20026;-57
2021/10/14 09:33:39;;;;;;;4.03;1.00;;;;;;;15.14;100.00;100544.72;6337716;22;20026;-58
2021/10/14 09:36:42;;;;;;;1.02;0.68;;;;;;;15.08;100.00;100547.47;6337806;22;20026;-58
2021/10/14 09:40:04;;;;;;;2.80;1.05;;;;;;;15.02;100.00;100535.41;6338341;22;20021;-58
2021/10/14 09:43:07;;;;;;;3.28;1.13;;;;;;;15.07;100.00;100537.47;6338050;22;20080;-57
2021/10/14 09:46:30;;;;;;;1.00;0.82;;;;;;;15.10;100.00;100536.50;6337935;22;20029;-57
2021/10/14 09:49:34;;;;;;;1.25;1.15;;;;;;;15.16;100.00;100537.34;6337820;22;20102;-57
2021/10/14 09:52:38;;;;;;;2.03;1.20;;;;;;;15.23;100.00;100535.38;6337713;22;20072;-57
2021/10/14 09:55:42;;;;;;;3.10;0.90;;;;;;;15.34;100.00;100543.94;6337811;22;20443;-59
2021/10/14 09:58:45;;;;;;;2.13;0.45;;;;;;;15.52;100.00;100529.66;6337904;22;20025;-57
2021/10/14 10:01:53;;;;;;;2.38;0.63;;;;;;;15.66;100.00;100537.19;6336847;22;20057;-57
2021/10/14 10:04:57;;;;;;;4.05;1.10;;;;;;;15.79;100.00;100529.16;6337176;22;20486;-57
2021/10/14 10:08:08;;;;;;;1.77;0.55;;;;;;;15.83;100.00;100524.13;6337703;22;20068;-56
2021/10/14 10:11:17;;;;;;;0.93;0.50;;;;;;;15.72;100.00;100509.97;6337852;22;20026;-56
2021/10/14 10:14:23;;;;;;;2.63;1.33;;;;;;;15.59;100.00;100504.72;6337620;22;20025;-56
2021/10/14 10:17:41;;;;;;;1.90;0.77;;;;;;;15.45;100.00;100505.59;6337699;22;20068;-57
2021/10/14 10:20:43;;;;;;;1.05;0.50;;;;;;;15.35;100.00;100492.97;6337637;22;20030;-56
2021/10/14 10:23:50;;;;;;;1.73;0.75;;;;;;;15.35;100.00;100489.38;6337689;22;20025;-57
2021/10/14 10:26:56;;;;;;;1.17;0.68;;;;;;;15.32;100.00;100493.16;6337967;22;20029;-56
2021/10/14 10:29:59;;;;;;;3.08;0.60;;;;;;;15.24;100.00;100481.59;6338000;22;20041;-56
2021/10/14 10:33:04;;;;;;;4.13;0.35;;;;;;;15.15;100.00;100478.94;6337772;22;20512;-56
2021/10/14 10:36:07;;;;;;;5.70;0.65;;;;;;;15.07;100.00;100491.84;6337671;22;20018;-56
2021/10/14 10:39:48;;;;;;;1.60;0.52;;;;;;;15.02;100.00;100484.91;6337546;22;20022;-56
2021/10/14 10:42:58;;;;;;;1.50;0.43;;;;;;;15.16;100.00;100472.81;6337819;22;20052;-56
2021/10/14 10:46:06;;;;;;;4.47;0.88;;;;;;;15.29;100.00;100466.84;6337928;22;20466;-56
2021/10/14 10:49:18;;;;;;;7.15;1.15;;;;;;;15.37;100.00;100472.81;6339680;22;20094;-56
2021/10/14 10:52:36;;;;;;;5.30;1.40;;;;;;;15.39;100.00;100462.63;6339384;22;20025;-56
2021/10/14 10:55:50;;;;;;;3.72;1.33;;;;;;;15.37;100.00;100470.00;6337591;22;20057;-58
2021/10/14 10:58:54;;;;;;;8.30;1.08;;;;;;;15.42;100.00;100467.25;6339460;22;20030;-57
2021/10/14 11:01:59;;;;;;;4.20;0.98;;;;;;;15.40;100.00;100458.53;6338214;22;20022;-59
2021/10/14 11:05:02;;;;;;;1.65;0.68;;;;;;;15.49;100.00;100454.84;6339194;22;20057;-57
2021/10/14 11:08:10;;;;;;;11.82;0.88;;;;;;;15.55;100.00;100458.50;6339372;22;20025;-58
2021/10/14 11:11:18;;;;;;;3.75;1.88;;;;;;;15.48;100.00;100447.69;6339315;22;20064;-57
2021/10/14 11:14:21;;;;;;;11.38;0.82;;;;;;;15.39;100.00;100450.63;6338992;22;20025;-55
2021/10/14 11:17:25;;;;;;;1.15;0.30;;;;;;;15.31;100.00;100443.91;6339146;22;20057;-54
2021/10/14 11:20:28;;;;;;;3.30;0.43;;;;;;;15.35;100.00;100444.47;6339012;22;20022;-55
2021/10/14 11:23:45;;;;;;;1.45;0.43;;;;;;;15.51;100.00;100435.47;6338935;22;20057;-55
2021/10/14 11:26:49;;;;;;;8.70;0.85;;;;;;;15.67;100.00;100429.25;6339173;22;20026;-57
2021/10/14 11:29:53;;;;;;;5.43;0.82;;;;;;;15.81;100.00;100425.53;6339293;22;20025;-57
2021/10/14 11:33:03;;;;;;;3.25;0.77;;;;;;;16.02;100.00;100418.56;6339400;22;20064;-57
2021/10/14 11:36:07;;;;;;;1.00;0.80;;;;;;;16.29;100.00;100415.16;6339555;22;20026;-57
2021/10/14 11:39:11;;;;;;;2.58;0.65;;;;;;;16.49;100.00;100400.22;6339688;22;20022;-57
2021/10/14 11:42:19;;;;;;;0.95;0.52;;;;;;;16.47;100.00;100397.91;6339854;22;20030;-57
2021/10/14 11:45:23;;;;;;;2.85;1.05;;;;;;;16.36;100.00;100403.47;6339368;22;20068;-58
2021/10/14 11:48:34;;;;;;;1.33;0.32;;;;;;;16.18;100.00;100394.66;6339365;22;20048;-57
2021/10/14 11:51:38;;;;;;;3.53;0.90;;;;;;;16.09;100.00;100390.00;6339313;22;20025;-57
2021/10/14 11:54:44;;;;;;;3.08;0.70;;;;;;;16.07;100.00;100386.16;6339043;22;20042;-57
2021/10/14 11:57:46;;;;;;;1.52;0.50;;;;;;;16.13;100.00;100389.78;6338467;22;20071;-57
2021/10/14 12:00:50;;;;;;;9.90;0.43;;;;;;;16.09;100.00;100383.63;6339540;22;20397;-61
2021/10/14 12:03:53;;;;;;;2.38;0.65;;;;;;;16.08;100.00;100382.06;6339173;22;20294;-57
2021/10/14 12:06:57;;;;;;;0.35;0.30;;;;;;;16.06;100.00;100384.63;6339367;22;20454;-57
2021/10/14 12:10:00;;;;;;;0.60;0.10;;;;;;;16.02;100.00;100370.03;6339555;22;20052;-56
2021/10/14 12:13:06;;;;;;;1.20;0.45;;;;;;;16.06;100.00;100373.38;6339473;22;20458;-56
2021/10/14 12:16:13;;;;;;;0.75;0.30;;;;;;;16.29;100.00;100361.00;6339518;22;20025;-56
2021/10/14 12:19:18;;;;;;;2.25;0.85;;;;;;;16.46;100.00;100365.44;6339564;22;20071;-56
2021/10/14 12:22:22;;;;;;;1.38;0.57;;;;;;;16.46;100.00;100361.84;6339285;22;20025;-56
2021/10/14 12:25:39;;;;;;;1.20;0.50;;;;;;;16.40;100.00;100356.22;6339173;22;20022;-56
2021/10/14 12:28:44;;;;;;;2.60;0.95;;;;;;;16.28;100.00;100351.03;6339169;22;20354;-56
2021/10/14 12:31:47;;;;;;;2.30;0.65;;;;;;;16.25;100.00;100347.19;6339110;22;20023;-56
2021/10/14 12:34:58;;;;;;;0.63;0.40;;;;;;;16.27;100.00;100341.06;6339515;22;20021;-56
2021/10/14 12:38:10;;;;;;;2.05;0.43;;;;;;;16.27;100.00;100333.41;6338947;22;20026;-56
2021/10/14 12:41:15;;;;;;;0.50;0.32;;;;;;;16.26;100.00;100331.09;6338960;22;20022;-56
2021/10/14 12:44:21;;;;;;;3.38;0.38;;;;;;;16.28;100.00;100329.31;6338993;22;20512;-56
2021/10/14 12:47:46;;;;;;;1.75;0.77;;;;;;;16.25;100.00;100315.50;6338786;22;20343;-56
2021/10/14 12:51:12;;;;;;;1.65;0.52;;;;;;;16.35;100.00;100328.81;6339044;22;20027;-56
2021/10/14 12:54:21;;;;;;;1.08;0.38;;;;;;;16.48;100.00;100320.72;6339100;22;20022;-57
2021/10/14 12:57:24;;;;;;;1.92;1.02;;;;;;;16.48;100.00;100311.53;6339005;22;20029;-57
2021/10/14 13:00:27;;;;;;;7.57;0.93;;;;;;;16.51;100.00;100297.25;6338880;22;20025;-56
2021/10/14 13:03:31;;;;;;;1.25;0.30;;;;;;;16.57;100.00;100305.69;6338648;22;20064;-56
2021/10/14 13:06:34;;;;;;;2.50;0.90;;;;;;;16.56;100.00;100304.94;6338761;22;20045;-56
2021/10/14 13:09:37;;;;;;;0.75;0.57;;;;;;;16.59;100.00;100291.88;6338367;22;20049;-57
2021/10/14 13:12:40;;;;;;;5.05;1.38;;;;;;;16.54;100.00;100290.63;6338730;22;20022;-56
2021/10/14 13:15:43;;;;;;;1.85;0.57;;;;;;;16.58;100.00;100291.16;6338450;22;20064;-58
2021/10/14 13:18:46;;;;;;;6.78;1.15;;;;;;;16.63;100.00;100275.56;6338742;22;20350;-58
2021/10/14 13:21:49;;;;;;;3.10;0.75;;;;;;;16.75;100.00;100282.75;6338628;22;20072;-57
2021/10/14 13:24:52;;;;;;;1.58;0.82;;;;;;;16.76;100.00;100278.66;6338685;22;20065;-57
2021/10/14 13:27:54;;;;;;;0.80;0.50;;;;;;;16.67;100.00;100276.81;6338701;22;20049;-57
2021/10/14 13:31:03;;;;;;;2.20;0.52;;;;;;;16.68;100.00;100261.50;6338819;22;20025;-57
2021/10/14 13:34:06;;;;;;;4.00;1.15;;;;;;;16.74;100.00;100258.69;6338689;22;20018;-57
2021/10/14 13:37:11;;;;;;;4.10;1.38;;;;;;;16.72;100.00;100260.50;6338783;22;20047;-57
2021/10/14 13:40:15;;;;;;;1.27;0.52;;;;;;;16.67;100.00;100254.31;6338774;22;20131;-57
2021/10/14 13:43:23;;;;;;;2.33;0.73;;;;;;;16.65;100.00;100247.69;6338706;22;20068;-57
2021/10/14 13:46:26;;;;;;;3.80;0.95;;;;;;;16.60;100.00;100257.66;6338603;22;20025;-57
2021/10/14 13:49:30;;;;;;;4.40;0.93;;;;;;;16.56;100.00;100259.94;6338463;22;20025;-57
2021/10/14 13:52:35;;;;;;;2.13;0.20;;;;;;;16.51;100.00;100241.00;6338295;22;20021;-57
2021/10/14 13:55:39;;;;;;;2.17;0.75;;;;;;;16.40;100.00;100252.19;6338401;22;20084;-57
2021/10/14 13:58:42;;;;;;;0.85;0.20;;;;;;;16.36;100.00;100248.09;6338440;22;20097;-57
2021/10/14 14:01:45;;;;;;;0.30;0.30;;;;;;;16.30;100.00;100244.50;6338299;22;20086;-54
2021/10/14 14:04:48;;;;;;;4.20;0.88;;;;;;;16.21;100.00;100251.09;6338344;22;20025;-54
2021/10/14 14:07:51;;;;;;;5.28;1.40;;;;;;;16.25;100.00;100246.00;6338435;22;20030;-54